sensor_id;sensor_type;location;lat;lon;timestamp;pressure;altitude;pressure_sealevel;temperature;humidity
19736;BME280;32064;49.310;8.646;2023-01-23T00:01:17;101946.19;;;5.31;80.43
19736;BME280;32064;49.310;8.646;2023-01-23T00:03:43;101934.72;;;5.38;79.26
19736;BME280;32064;49.310;8.646;2023-01-23T00:06:14;101942.47;;;5.42;79.85
19736;BME280;32064;49.310;8.646;2023-01-23T00:08:43;101938.00;;;5.47;79.83
19736;BME280;32064;49.310;8.646;2023-01-23T00:11:19;101937.19;;;5.45;79.00
19736;BME280;32064;49.310;8.646;2023-01-23T00:13:45;101927.56;;;5.47;79.02
19736;BME280;32064;49.310;8.646;2023-01-23T00:16:16;101934.59;;;5.43;80.35
19736;BME280;32064;49.310;8.646;2023-01-23T00:18:43;101924.91;;;5.48;78.67
19736;BME280;32064;49.310;8.646;2023-01-23T00:21:12;101938.88;;;5.46;79.04
19736;BME280;32064;49.310;8.646;2023-01-23T00:23:41;101931.88;;;5.48;78.80
19736;BME280;32064;49.310;8.646;2023-01-23T00:26:10;101932.66;;;5.51;79.04
19736;BME280;32064;49.310;8.646;2023-01-23T00:28:36;101929.19;;;5.52;79.32
19736;BME280;32064;49.310;8.646;2023-01-23T00:31:07;101925.75;;;5.50;78.73
19736;BME280;32064;49.310;8.646;2023-01-23T00:33:32;101926.81;;;5.42;79.52
19736;BME280;32064;49.310;8.646;2023-01-23T00:35:58;101925.06;;;5.42;80.69
19736;BME280;32064;49.310;8.646;2023-01-23T00:38:25;101918.84;;;5.46;79.66
19736;BME280;32064;49.310;8.646;2023-01-23T00:40:50;101920.75;;;5.41;79.06
19736;BME280;32064;49.310;8.646;2023-01-23T00:43:16;101926.13;;;5.33;80.64
19736;BME280;32064;49.310;8.646;2023-01-23T00:45:42;101923.53;;;5.33;79.73
19736;BME280;32064;49.310;8.646;2023-01-23T00:48:07;101924.44;;;5.31;79.18
19736;BME280;32064;49.310;8.646;2023-01-23T00:50:32;101920.84;;;5.36;79.60
19736;BME280;32064;49.310;8.646;2023-01-23T00:52:58;101931.34;;;5.33;79.15
19736;BME280;32064;49.310;8.646;2023-01-23T00:55:23;101926.22;;;5.29;80.50
19736;BME280;32064;49.310;8.646;2023-01-23T00:57:49;101932.28;;;5.31;79.18
19736;BME280;32064;49.310;8.646;2023-01-23T01:00:15;101935.66;;;5.34;78.99
19736;BME280;32064;49.310;8.646;2023-01-23T01:02:40;101936.50;;;5.36;79.32
19736;BME280;32064;49.310;8.646;2023-01-23T01:05:06;101929.53;;;5.37;78.87
19736;BME280;32064;49.310;8.646;2023-01-23T01:07:31;101936.59;;;5.32;80.83
19736;BME280;32064;49.310;8.646;2023-01-23T01:09:57;101930.53;;;5.31;80.00
19736;BME280;32064;49.310;8.646;2023-01-23T01:12:22;101937.44;;;5.34;80.15
19736;BME280;32064;49.310;8.646;2023-01-23T01:14:47;101940.09;;;5.31;79.36
19736;BME280;32064;49.310;8.646;2023-01-23T01:17:13;101940.97;;;5.31;78.58
19736;BME280;32064;49.310;8.646;2023-01-23T01:19:38;101935.81;;;5.30;79.14
19736;BME280;32064;49.310;8.646;2023-01-23T01:22:04;101943.69;;;5.27;79.80
19736;BME280;32064;49.310;8.646;2023-01-23T01:24:29;101952.44;;;5.24;79.85
19736;BME280;32064;49.310;8.646;2023-01-23T01:26:54;101950.09;;;5.12;78.79
19736;BME280;32064;49.310;8.646;2023-01-23T01:29:20;101952.16;;;4.98;80.86
19736;BME280;32064;49.310;8.646;2023-01-23T01:31:45;101955.81;;;4.89;80.44
19736;BME280;32064;49.310;8.646;2023-01-23T01:34:11;101954.97;;;4.87;80.09
19736;BME280;32064;49.310;8.646;2023-01-23T01:36:38;101961.03;;;4.89;79.37
19736;BME280;32064;49.310;8.646;2023-01-23T01:39:03;101963.81;;;4.81;80.08
19736;BME280;32064;49.310;8.646;2023-01-23T01:41:29;101949.94;;;4.79;78.58
19736;BME280;32064;49.310;8.646;2023-01-23T01:43:55;101953.41;;;4.80;79.96
19736;BME280;32064;49.310;8.646;2023-01-23T01:46:28;101950.88;;;4.77;78.82
19736;BME280;32064;49.310;8.646;2023-01-23T01:56:35;101967.28;;;4.80;78.97
19736;BME280;32064;49.310;8.646;2023-01-23T01:59:04;101970.66;;;4.85;80.14
19736;BME280;32064;49.310;8.646;2023-01-23T02:01:30;101961.16;;;4.84;79.25
19736;BME280;32064;49.310;8.646;2023-01-23T02:03:56;101955.75;;;4.92;78.82
19736;BME280;32064;49.310;8.646;2023-01-23T02:06:22;101965.16;;;4.99;80.17
19736;BME280;32064;49.310;8.646;2023-01-23T02:08:54;101961.59;;;5.03;79.75
19736;BME280;32064;49.310;8.646;2023-01-23T02:11:23;101966.78;;;5.05;79.75
19736;BME280;32064;49.310;8.646;2023-01-23T02:13:48;101970.19;;;5.08;80.18
19736;BME280;32064;49.310;8.646;2023-01-23T02:16:17;101963.22;;;5.09;79.05
19736;BME280;32064;49.310;8.646;2023-01-23T02:18:49;101970.97;;;5.12;79.80
19736;BME280;32064;49.310;8.646;2023-01-23T02:21:20;101970.94;;;5.13;79.42
19736;BME280;32064;49.310;8.646;2023-01-23T02:26:37;101977.00;;;5.15;79.47
19736;BME280;32064;49.310;8.646;2023-01-23T02:29:05;101977.78;;;5.17;79.07
19736;BME280;32064;49.310;8.646;2023-01-23T02:31:31;101972.56;;;5.19;80.25
19736;BME280;32064;49.310;8.646;2023-01-23T02:33:58;101976.00;;;5.21;79.42
19736;BME280;32064;49.310;8.646;2023-01-23T02:36:28;101974.25;;;5.22;77.81
19736;BME280;32064;49.310;8.646;2023-01-23T02:39:15;101976.09;;;5.16;78.12
19736;BME280;32064;49.310;8.646;2023-01-23T02:41:46;101981.28;;;5.18;79.89
19736;BME280;32064;49.310;8.646;2023-01-23T02:44:17;101978.59;;;5.21;78.33
19736;BME280;32064;49.310;8.646;2023-01-23T02:46:44;101980.34;;;5.21;78.96
19736;BME280;32064;49.310;8.646;2023-01-23T02:49:10;101982.91;;;5.24;79.89
19736;BME280;32064;49.310;8.646;2023-01-23T02:51:35;101984.63;;;5.23;79.91
19736;BME280;32064;49.310;8.646;2023-01-23T02:54:01;101985.47;;;5.25;79.49
19736;BME280;32064;49.310;8.646;2023-01-23T02:56:27;101977.63;;;5.25;78.24
19736;BME280;32064;49.310;8.646;2023-01-23T02:58:52;101975.00;;;5.27;78.16
19736;BME280;32064;49.310;8.646;2023-01-23T03:01:36;101975.00;;;5.27;80.12
19736;BME280;32064;49.310;8.646;2023-01-23T03:04:03;101969.03;;;5.22;78.73
19736;BME280;32064;49.310;8.646;2023-01-23T03:06:33;101965.50;;;5.24;78.96
19736;BME280;32064;49.310;8.646;2023-01-23T03:09:04;101969.84;;;5.24;80.06
19736;BME280;32064;49.310;8.646;2023-01-23T03:11:32;101970.66;;;5.26;79.32
19736;BME280;32064;49.310;8.646;2023-01-23T03:13:58;101975.00;;;5.27;78.04
19736;BME280;32064;49.310;8.646;2023-01-23T03:16:24;101964.56;;;5.27;78.63
19736;BME280;32064;49.310;8.646;2023-01-23T03:18:49;101961.97;;;5.25;79.00
19736;BME280;32064;49.310;8.646;2023-01-23T03:21:15;101970.72;;;5.24;79.06
19736;BME280;32064;49.310;8.646;2023-01-23T03:23:40;101968.91;;;5.26;78.49
19736;BME280;32064;49.310;8.646;2023-01-23T03:26:09;101978.47;;;5.27;79.03
19736;BME280;32064;49.310;8.646;2023-01-23T03:28:35;101976.72;;;5.28;78.80
19736;BME280;32064;49.310;8.646;2023-01-23T03:31:20;101972.41;;;5.27;79.67
19736;BME280;32064;49.310;8.646;2023-01-23T03:33:45;101963.69;;;5.26;79.52
19736;BME280;32064;49.310;8.646;2023-01-23T03:36:11;101967.19;;;5.25;78.25
19736;BME280;32064;49.310;8.646;2023-01-23T03:38:38;101975.09;;;5.22;80.62
19736;BME280;32064;49.310;8.646;2023-01-23T03:41:04;101965.56;;;5.21;79.52
19736;BME280;32064;49.310;8.646;2023-01-23T03:43:48;101971.50;;;5.26;79.90
19736;BME280;32064;49.310;8.646;2023-01-23T03:46:13;101976.09;;;5.15;79.40
19736;BME280;32064;49.310;8.646;2023-01-23T03:48:39;101967.41;;;5.16;79.92
19736;BME280;32064;49.310;8.646;2023-01-23T03:51:04;101962.03;;;5.24;78.77
19736;BME280;32064;49.310;8.646;2023-01-23T03:53:31;101968.88;;;5.28;78.01
19736;BME280;32064;49.310;8.646;2023-01-23T03:55:57;101964.41;;;5.33;78.99
19736;BME280;32064;49.310;8.646;2023-01-23T03:58:22;101959.09;;;5.37;78.15
19736;BME280;32064;49.310;8.646;2023-01-23T04:00:47;101967.75;;;5.39;78.10
19736;BME280;32064;49.310;8.646;2023-01-23T04:03:13;101965.97;;;5.42;78.81
19736;BME280;32064;49.310;8.646;2023-01-23T04:05:38;101974.56;;;5.45;78.37
19736;BME280;32064;49.310;8.646;2023-01-23T04:08:04;101978.88;;;5.46;79.24
19736;BME280;32064;49.310;8.646;2023-01-23T04:10:29;101975.41;;;5.47;78.23
19736;BME280;32064;49.310;8.646;2023-01-23T04:12:55;101985.84;;;5.47;78.70
19736;BME280;32064;49.310;8.646;2023-01-23T04:15:20;101991.88;;;5.49;76.86
19736;BME280;32064;49.310;8.646;2023-01-23T04:17:45;101981.44;;;5.49;78.87
19736;BME280;32064;49.310;8.646;2023-01-23T04:20:12;101991.00;;;5.50;77.55
19736;BME280;32064;49.310;8.646;2023-01-23T04:22:37;102002.28;;;5.51;77.59
19736;BME280;32064;49.310;8.646;2023-01-23T04:25:04;101983.25;;;5.46;77.65
19736;BME280;32064;49.310;8.646;2023-01-23T04:27:30;101989.31;;;5.48;77.54
19736;BME280;32064;49.310;8.646;2023-01-23T04:29:55;102001.59;;;5.43;77.26
19736;BME280;32064;49.310;8.646;2023-01-23T04:32:22;102000.66;;;5.47;78.16
19736;BME280;32064;49.310;8.646;2023-01-23T04:34:48;101997.22;;;5.43;78.60
19736;BME280;32064;49.310;8.646;2023-01-23T04:37:13;101997.97;;;5.48;79.20
19736;BME280;32064;49.310;8.646;2023-01-23T04:39:38;102004.88;;;5.52;77.60
19736;BME280;32064;49.310;8.646;2023-01-23T04:42:04;102005.75;;;5.51;78.09
19736;BME280;32064;49.310;8.646;2023-01-23T04:44:29;102015.31;;;5.52;77.86
19736;BME280;32064;49.310;8.646;2023-01-23T04:46:55;102016.19;;;5.51;76.52
19736;BME280;32064;49.310;8.646;2023-01-23T04:49:21;102023.09;;;5.54;77.33
19736;BME280;32064;49.310;8.646;2023-01-23T04:51:47;102026.53;;;5.54;77.76
19736;BME280;32064;49.310;8.646;2023-01-23T04:54:15;102029.22;;;5.53;76.70
19736;BME280;32064;49.310;8.646;2023-01-23T04:56:41;102033.56;;;5.52;77.54
19736;BME280;32064;49.310;8.646;2023-01-23T04:59:07;102040.47;;;5.55;77.10
19736;BME280;32064;49.310;8.646;2023-01-23T05:01:32;102048.25;;;5.56;77.47
19736;BME280;32064;49.310;8.646;2023-01-23T05:03:58;102052.53;;;5.60;76.18
19736;BME280;32064;49.310;8.646;2023-01-23T05:06:23;102045.63;;;5.58;77.46
19736;BME280;32064;49.310;8.646;2023-01-23T05:08:49;102042.97;;;5.59;76.82
19736;BME280;32064;49.310;8.646;2023-01-23T05:11:14;102043.88;;;5.58;76.70
19736;BME280;32064;49.310;8.646;2023-01-23T05:13:40;102037.75;;;5.59;76.27
19736;BME280;32064;49.310;8.646;2023-01-23T05:16:06;102041.28;;;5.57;77.70
19736;BME280;32064;49.310;8.646;2023-01-23T05:18:31;102037.00;;;5.54;75.66
19736;BME280;32064;49.310;8.646;2023-01-23T05:20:57;102047.34;;;5.57;76.48
19736;BME280;32064;49.310;8.646;2023-01-23T05:23:22;102037.72;;;5.61;76.07
19736;BME280;32064;49.310;8.646;2023-01-23T05:25:47;102051.69;;;5.58;76.71
19736;BME280;32064;49.310;8.646;2023-01-23T05:28:13;102058.69;;;5.58;75.29
19736;BME280;32064;49.310;8.646;2023-01-23T05:30:38;102054.25;;;5.60;76.17
19736;BME280;32064;49.310;8.646;2023-01-23T05:33:04;102056.06;;;5.58;75.10
19736;BME280;32064;49.310;8.646;2023-01-23T05:35:29;102052.56;;;5.59;75.72
19736;BME280;32064;49.310;8.646;2023-01-23T05:37:55;102056.88;;;5.60;76.22
19736;BME280;32064;49.310;8.646;2023-01-23T05:40:20;102055.16;;;5.59;74.83
19736;BME280;32064;49.310;8.646;2023-01-23T05:42:46;102052.56;;;5.57;76.27
19736;BME280;32064;49.310;8.646;2023-01-23T05:45:12;102060.38;;;5.60;75.24
19736;BME280;32064;49.310;8.646;2023-01-23T05:47:38;102066.44;;;5.61;76.39
19736;BME280;32064;49.310;8.646;2023-01-23T05:50:05;102066.38;;;5.62;74.42
19736;BME280;32064;49.310;8.646;2023-01-23T05:52:35;102063.75;;;5.64;74.34
19736;BME280;32064;49.310;8.646;2023-01-23T05:55:00;102066.31;;;5.66;76.51
19736;BME280;32064;49.310;8.646;2023-01-23T05:57:26;102059.41;;;5.63;75.28
19736;BME280;32064;49.310;8.646;2023-01-23T05:59:51;102059.47;;;5.61;76.34
19736;BME280;32064;49.310;8.646;2023-01-23T06:02:17;102055.25;;;5.56;75.23
19736;BME280;32064;49.310;8.646;2023-01-23T06:04:42;102054.47;;;5.51;75.69
19736;BME280;32064;49.310;8.646;2023-01-23T06:07:13;102063.34;;;5.44;76.22
19736;BME280;32064;49.310;8.646;2023-01-23T06:09:39;102066.97;;;5.36;76.08
19736;BME280;32064;49.310;8.646;2023-01-23T06:12:04;102067.09;;;5.30;75.08
19736;BME280;32064;49.310;8.646;2023-01-23T06:14:30;102059.41;;;5.24;74.75
19736;BME280;32064;49.310;8.646;2023-01-23T06:16:55;102061.25;;;5.19;76.69
19736;BME280;32064;49.310;8.646;2023-01-23T06:19:21;102053.50;;;5.14;75.41
19736;BME280;32064;49.310;8.646;2023-01-23T06:21:46;102055.34;;;5.09;76.79
19736;BME280;32064;49.310;8.646;2023-01-23T06:24:11;102060.69;;;5.05;76.68
19736;BME280;32064;49.310;8.646;2023-01-23T06:26:37;102051.22;;;4.99;74.86
19736;BME280;32064;49.310;8.646;2023-01-23T06:29:02;102043.53;;;4.93;75.41
19736;BME280;32064;49.310;8.646;2023-01-23T06:31:28;102051.41;;;4.90;75.04
19736;BME280;32064;49.310;8.646;2023-01-23T06:33:57;102059.25;;;4.87;75.20
19736;BME280;32064;49.310;8.646;2023-01-23T06:36:22;102052.47;;;4.80;75.59
19736;BME280;32064;49.310;8.646;2023-01-23T06:38:48;102062.06;;;4.78;77.09
19736;BME280;32064;49.310;8.646;2023-01-23T06:41:14;102057.81;;;4.73;75.57
19736;BME280;32064;49.310;8.646;2023-01-23T06:43:40;102063.13;;;4.67;76.59
19736;BME280;32064;49.310;8.646;2023-01-23T06:46:08;102066.66;;;4.63;76.20
19736;BME280;32064;49.310;8.646;2023-01-23T06:48:35;102064.13;;;4.60;76.29
19736;BME280;32064;49.310;8.646;2023-01-23T06:51:00;102073.75;;;4.55;77.01
19736;BME280;32064;49.310;8.646;2023-01-23T06:53:26;102083.38;;;4.53;75.33
19736;BME280;32064;49.310;8.646;2023-01-23T06:55:52;102086.91;;;4.50;75.52
19736;BME280;32064;49.310;8.646;2023-01-23T06:58:17;102099.06;;;4.48;75.15
19736;BME280;32064;49.310;8.646;2023-01-23T07:00:43;102093.09;;;4.43;77.00
19736;BME280;32064;49.310;8.646;2023-01-23T07:03:10;102097.50;;;4.40;75.46
19736;BME280;32064;49.310;8.646;2023-01-23T07:05:36;102113.13;;;4.40;75.70
19736;BME280;32064;49.310;8.646;2023-01-23T07:08:04;102109.66;;;4.39;76.85
19736;BME280;32064;49.310;8.646;2023-01-23T07:10:30;102117.47;;;4.39;76.52
19736;BME280;32064;49.310;8.646;2023-01-23T07:12:56;102126.94;;;4.45;76.63
19736;BME280;32064;49.310;8.646;2023-01-23T07:15:22;102126.00;;;4.49;76.53
19736;BME280;32064;49.310;8.646;2023-01-23T07:17:47;102133.75;;;4.52;77.57
19736;BME280;32064;49.310;8.646;2023-01-23T07:20:13;102132.84;;;4.55;76.25
19736;BME280;32064;49.310;8.646;2023-01-23T07:22:38;102144.00;;;4.61;75.81
19736;BME280;32064;49.310;8.646;2023-01-23T07:25:04;102143.09;;;4.64;76.46
19736;BME280;32064;49.310;8.646;2023-01-23T07:27:29;102149.16;;;4.67;76.94
19736;BME280;32064;49.310;8.646;2023-01-23T07:29:55;102152.50;;;4.76;76.85
19736;BME280;32064;49.310;8.646;2023-01-23T07:32:20;102151.47;;;4.83;76.32
19736;BME280;32064;49.310;8.646;2023-01-23T07:34:46;102156.63;;;4.87;75.17
19736;BME280;32064;49.310;8.646;2023-01-23T07:37:11;102146.94;;;4.94;75.07
19736;BME280;32064;49.310;8.646;2023-01-23T07:39:37;102151.16;;;5.00;74.91
19736;BME280;32064;49.310;8.646;2023-01-23T07:42:02;102147.59;;;5.04;76.25
19736;BME280;32064;49.310;8.646;2023-01-23T07:44:27;102150.13;;;5.08;75.90
19736;BME280;32064;49.310;8.646;2023-01-23T07:46:53;102150.19;;;5.07;75.63
19736;BME280;32064;49.310;8.646;2023-01-23T07:49:18;102152.69;;;5.11;75.32
19736;BME280;32064;49.310;8.646;2023-01-23T07:51:44;102146.63;;;5.11;75.23
19736;BME280;32064;49.310;8.646;2023-01-23T07:54:09;102145.63;;;5.18;75.84
19736;BME280;32064;49.310;8.646;2023-01-23T07:56:35;102142.06;;;5.21;74.52
19736;BME280;32064;49.310;8.646;2023-01-23T07:59:00;102136.81;;;5.24;76.34
19736;BME280;32064;49.310;8.646;2023-01-23T08:01:26;102147.94;;;5.32;74.84
19736;BME280;32064;49.310;8.646;2023-01-23T08:03:52;102147.88;;;5.35;74.18
19736;BME280;32064;49.310;8.646;2023-01-23T08:06:18;102140.88;;;5.38;75.50
19736;BME280;32064;49.310;8.646;2023-01-23T08:08:46;102133.81;;;5.42;74.09
19736;BME280;32064;49.310;8.646;2023-01-23T08:11:12;102139.69;;;5.52;75.26
19736;BME280;32064;49.310;8.646;2023-01-23T08:13:38;102135.38;;;5.52;75.37
19736;BME280;32064;49.310;8.646;2023-01-23T08:16:04;102136.09;;;5.57;75.53
19736;BME280;32064;49.310;8.646;2023-01-23T08:18:30;102149.97;;;5.61;75.26
19736;BME280;32064;49.310;8.646;2023-01-23T08:20:58;102150.41;;;5.81;74.76
19736;BME280;32064;49.310;8.646;2023-01-23T08:23:25;102148.06;;;6.10;73.42
19736;BME280;32064;49.310;8.646;2023-01-23T08:25:52;102143.41;;;6.22;73.56
19736;BME280;32064;49.310;8.646;2023-01-23T08:28:18;102145.91;;;6.27;74.04
19736;BME280;32064;49.310;8.646;2023-01-23T08:30:43;102150.22;;;6.28;73.47
19736;BME280;32064;49.310;8.646;2023-01-23T08:33:09;102145.91;;;6.27;74.11
19736;BME280;32064;49.310;8.646;2023-01-23T08:35:34;102148.44;;;6.32;74.14
19736;BME280;32064;49.310;8.646;2023-01-23T08:38:00;102139.50;;;6.40;74.04
19736;BME280;32064;49.310;8.646;2023-01-23T08:40:26;102141.25;;;6.40;73.34
19736;BME280;32064;49.310;8.646;2023-01-23T08:42:52;102141.38;;;6.34;73.20
19736;BME280;32064;49.310;8.646;2023-01-23T08:45:18;102147.53;;;6.33;73.00
19736;BME280;32064;49.310;8.646;2023-01-23T08:47:43;102148.44;;;6.30;73.58
19736;BME280;32064;49.310;8.646;2023-01-23T08:50:09;102149.31;;;6.30;72.84
19736;BME280;32064;49.310;8.646;2023-01-23T08:52:35;102146.66;;;6.32;72.73
19736;BME280;32064;49.310;8.646;2023-01-23T08:55:00;102142.28;;;6.34;73.95
19736;BME280;32064;49.310;8.646;2023-01-23T08:57:26;102152.66;;;6.37;74.37
19736;BME280;32064;49.310;8.646;2023-01-23T08:59:51;102148.38;;;6.33;73.06
19736;BME280;32064;49.310;8.646;2023-01-23T09:02:16;102157.94;;;6.34;72.66
19736;BME280;32064;49.310;8.646;2023-01-23T09:04:42;102161.44;;;6.33;73.01
19736;BME280;32064;49.310;8.646;2023-01-23T09:07:07;102162.28;;;6.35;73.83
19736;BME280;32064;49.310;8.646;2023-01-23T09:09:33;102177.03;;;6.38;74.05
19736;BME280;32064;49.310;8.646;2023-01-23T09:11:58;102156.22;;;6.33;73.82
19736;BME280;32064;49.310;8.646;2023-01-23T09:14:24;102169.75;;;6.13;73.29
19736;BME280;32064;49.310;8.646;2023-01-23T09:16:49;102167.19;;;6.12;71.76
19736;BME280;32064;49.310;8.646;2023-01-23T09:19:14;102173.28;;;6.11;71.91
19736;BME280;32064;49.310;8.646;2023-01-23T09:21:40;102167.38;;;6.02;70.10
19736;BME280;32064;49.310;8.646;2023-01-23T09:24:05;102165.75;;;5.97;71.75
19736;BME280;32064;49.310;8.646;2023-01-23T09:26:31;102170.22;;;5.92;71.10
19736;BME280;32064;49.310;8.646;2023-01-23T09:28:56;102166.69;;;5.93;69.72
19736;BME280;32064;49.310;8.646;2023-01-23T09:31:22;102169.50;;;5.83;70.87
19736;BME280;32064;49.310;8.646;2023-01-23T09:33:47;102174.59;;;5.90;69.77
19736;BME280;32064;49.310;8.646;2023-01-23T09:36:13;102169.44;;;5.87;69.47
19736;BME280;32064;49.310;8.646;2023-01-23T09:38:38;102178.03;;;5.93;70.39
19736;BME280;32064;49.310;8.646;2023-01-23T09:41:17;102178.09;;;5.89;69.11
19736;BME280;32064;49.310;8.646;2023-01-23T09:43:50;102180.69;;;5.89;70.48
19736;BME280;32064;49.310;8.646;2023-01-23T09:46:44;102184.97;;;5.93;68.83
19736;BME280;32064;49.310;8.646;2023-01-23T09:49:18;102184.88;;;5.99;70.20
19736;BME280;32064;49.310;8.646;2023-01-23T09:51:51;102185.63;;;6.04;69.63
19736;BME280;32064;49.310;8.646;2023-01-23T09:54:28;102184.59;;;6.11;70.01
19736;BME280;32064;49.310;8.646;2023-01-23T09:56:59;102174.94;;;6.15;70.04
19736;BME280;32064;49.310;8.646;2023-01-23T09:59:36;102175.91;;;6.11;69.10
19736;BME280;32064;49.310;8.646;2023-01-23T10:02:15;102180.25;;;6.12;69.44
19736;BME280;32064;49.310;8.646;2023-01-23T10:04:48;102181.78;;;6.20;68.94
19736;BME280;32064;49.310;8.646;2023-01-23T10:13:06;102190.78;;;6.07;68.91
19736;BME280;32064;49.310;8.646;2023-01-23T10:24:54;102177.75;;;6.05;69.07
19736;BME280;32064;49.310;8.646;2023-01-23T10:27:34;102167.31;;;6.05;69.38
19736;BME280;32064;49.310;8.646;2023-01-23T10:30:12;102176.88;;;6.06;68.47
19736;BME280;32064;49.310;8.646;2023-01-23T10:35:21;102178.34;;;6.18;68.72
19736;BME280;32064;49.310;8.646;2023-01-23T10:40:42;102173.81;;;6.25;68.94
19736;BME280;32064;49.310;8.646;2023-01-23T10:43:26;102175.50;;;6.27;67.82
19736;BME280;32064;49.310;8.646;2023-01-23T10:45:52;102172.03;;;6.27;68.34
19736;BME280;32064;49.310;8.646;2023-01-23T10:48:40;102177.28;;;6.27;68.09
19736;BME280;32064;49.310;8.646;2023-01-23T10:51:43;102165.03;;;6.29;69.03
19736;BME280;32064;49.310;8.646;2023-01-23T10:56:47;102178.97;;;6.28;67.44
19736;BME280;32064;49.310;8.646;2023-01-23T10:59:24;102174.59;;;6.30;67.92
19736;BME280;32064;49.310;8.646;2023-01-23T11:01:56;102175.44;;;6.30;67.55
19736;BME280;32064;49.310;8.646;2023-01-23T11:04:24;102174.50;;;6.33;68.16
19736;BME280;32064;49.310;8.646;2023-01-23T11:09:25;102170.81;;;6.42;67.40
19736;BME280;32064;49.310;8.646;2023-01-23T11:12:04;102175.38;;;6.34;67.53
19736;BME280;32064;49.310;8.646;2023-01-23T11:14:30;102171.66;;;6.42;68.37
19736;BME280;32064;49.310;8.646;2023-01-23T11:17:01;102170.75;;;6.45;68.88
19736;BME280;32064;49.310;8.646;2023-01-23T11:19:29;102165.41;;;6.49;68.00
19736;BME280;32064;49.310;8.646;2023-01-23T11:21:58;102164.63;;;6.46;68.44
19736;BME280;32064;49.310;8.646;2023-01-23T11:29:29;102168.81;;;6.53;68.26
19736;BME280;32064;49.310;8.646;2023-01-23T11:32:03;102176.63;;;6.55;68.72
19736;BME280;32064;49.310;8.646;2023-01-23T11:34:39;102166.16;;;6.55;69.09
19736;BME280;32064;49.310;8.646;2023-01-23T11:37:31;102159.94;;;6.59;68.37
19736;BME280;32064;49.310;8.646;2023-01-23T11:40:02;102163.22;;;6.67;68.17
19736;BME280;32064;49.310;8.646;2023-01-23T11:42:29;102155.22;;;6.73;67.87
19736;BME280;32064;49.310;8.646;2023-01-23T11:44:57;102155.16;;;6.76;66.72
19736;BME280;32064;49.310;8.646;2023-01-23T11:50:46;102135.16;;;6.73;67.37
19736;BME280;32064;49.310;8.646;2023-01-23T11:59:01;102133.34;;;6.77;67.23
19736;BME280;32064;49.310;8.646;2023-01-23T12:07:04;102125.34;;;6.83;68.00
19736;BME280;32064;49.310;8.646;2023-01-23T12:15:42;102116.47;;;6.89;67.08
19736;BME280;32064;49.310;8.646;2023-01-23T12:18:18;102120.88;;;6.87;67.74
19736;BME280;32064;49.310;8.646;2023-01-23T12:23:54;102110.88;;;7.03;67.25
19736;BME280;32064;49.310;8.646;2023-01-23T12:26:25;102103.69;;;7.09;66.67
19736;BME280;32064;49.310;8.646;2023-01-23T12:34:59;102093.75;;;7.22;67.20
19736;BME280;32064;49.310;8.646;2023-01-23T12:40:17;102086.94;;;7.16;67.22
19736;BME280;32064;49.310;8.646;2023-01-23T12:42:58;102083.50;;;7.14;67.19
19736;BME280;32064;49.310;8.646;2023-01-23T12:45:27;102087.72;;;7.18;67.28
19736;BME280;32064;49.310;8.646;2023-01-23T12:48:01;102089.56;;;7.15;66.97
19736;BME280;32064;49.310;8.646;2023-01-23T12:50:39;102091.28;;;7.16;66.70
19736;BME280;32064;49.310;8.646;2023-01-23T12:53:13;102085.94;;;7.20;67.24
19736;BME280;32064;49.310;8.646;2023-01-23T12:56:03;102085.09;;;7.18;66.74
19736;BME280;32064;49.310;8.646;2023-01-23T12:58:34;102089.22;;;7.27;67.00
19736;BME280;32064;49.310;8.646;2023-01-23T13:01:32;102077.88;;;7.27;67.09
19736;BME280;32064;49.310;8.646;2023-01-23T13:07:03;102078.97;;;7.19;66.74
19736;BME280;32064;49.310;8.646;2023-01-23T13:12:31;102077.22;;;7.20;67.26
19736;BME280;32064;49.310;8.646;2023-01-23T13:20:27;102066.88;;;7.15;67.57
19736;BME280;32064;49.310;8.646;2023-01-23T13:25:47;102071.38;;;7.10;67.79
19736;BME280;32064;49.310;8.646;2023-01-23T13:28:51;102070.53;;;7.10;67.69
19736;BME280;32064;49.310;8.646;2023-01-23T13:36:40;102072.00;;;7.18;67.48
19736;BME280;32064;49.310;8.646;2023-01-23T13:41:45;102063.31;;;7.18;67.17
19736;BME280;32064;49.310;8.646;2023-01-23T13:49:21;102041.97;;;7.32;67.38
19736;BME280;32064;49.310;8.646;2023-01-23T13:52:10;102041.13;;;7.31;67.27
19736;BME280;32064;49.310;8.646;2023-01-23T13:54:56;102058.53;;;7.32;66.67
19736;BME280;32064;49.310;8.646;2023-01-23T13:57:40;102054.97;;;7.35;66.44
19736;BME280;32064;49.310;8.646;2023-01-23T14:00:12;102055.03;;;7.33;67.66
19736;BME280;32064;49.310;8.646;2023-01-23T14:02:42;102052.31;;;7.36;66.84
19736;BME280;32064;49.310;8.646;2023-01-23T14:05:32;102046.06;;;7.40;66.90
19736;BME280;32064;49.310;8.646;2023-01-23T14:08:21;102051.63;;;7.30;67.14
19736;BME280;32064;49.310;8.646;2023-01-23T14:10:48;102050.66;;;7.34;66.33
19736;BME280;32064;49.310;8.646;2023-01-23T14:13:16;102043.66;;;7.34;66.67
19736;BME280;32064;49.310;8.646;2023-01-23T14:15:48;102047.03;;;7.38;66.72
19736;BME280;32064;49.310;8.646;2023-01-23T14:18:44;102047.03;;;7.38;66.92
19736;BME280;32064;49.310;8.646;2023-01-23T14:21:30;102037.47;;;7.37;66.68
19736;BME280;32064;49.310;8.646;2023-01-23T14:24:00;102041.44;;;7.50;67.02
19736;BME280;32064;49.310;8.646;2023-01-23T14:26:33;102029.97;;;7.53;66.25
19736;BME280;32064;49.310;8.646;2023-01-23T14:29:04;102033.66;;;7.47;66.87
19736;BME280;32064;49.310;8.646;2023-01-23T14:31:42;102028.38;;;7.49;66.21
19736;BME280;32064;49.310;8.646;2023-01-23T14:34:37;102022.28;;;7.48;66.62
19736;BME280;32064;49.310;8.646;2023-01-23T14:37:05;102018.72;;;7.51;66.23
19736;BME280;32064;49.310;8.646;2023-01-23T14:39:33;102012.56;;;7.52;66.86
19736;BME280;32064;49.310;8.646;2023-01-23T14:42:00;102018.66;;;7.52;67.15
19736;BME280;32064;49.310;8.646;2023-01-23T14:44:41;102021.44;;;7.48;67.27
19736;BME280;32064;49.310;8.646;2023-01-23T14:47:14;102016.97;;;7.50;67.04
19736;BME280;32064;49.310;8.646;2023-01-23T14:49:40;102022.13;;;7.53;66.50